sensor_id;sensor_type;location;lat;lon;timestamp;P1;durP1;ratioP1;P2;durP2;ratioP2
52468;SDS011;38381;53.688;10.776;2023-02-08T00:04:43;17.08;;;15.10;;
52468;SDS011;38381;53.688;10.776;2023-02-08T00:09:43;17.63;;;15.40;;
52468;SDS011;38381;53.688;10.776;2023-02-08T00:14:44;20.20;;;15.85;;
52468;SDS011;38381;53.688;10.776;2023-02-08T00:19:44;17.67;;;15.85;;
52468;SDS011;38381;53.688;10.776;2023-02-08T00:24:44;18.25;;;14.50;;
52468;SDS011;38381;53.688;10.776;2023-02-08T00:29:45;21.08;;;16.98;;
52468;SDS011;38381;53.688;10.776;2023-02-08T00:34:45;19.52;;;15.95;;
52468;SDS011;38381;53.688;10.776;2023-02-08T00:39:46;20.73;;;15.77;;
52468;SDS011;38381;53.688;10.776;2023-02-08T00:44:46;18.65;;;16.63;;
52468;SDS011;38381;53.688;10.776;2023-02-08T00:49:46;19.98;;;16.05;;
52468;SDS011;38381;53.688;10.776;2023-02-08T00:54:47;15.65;;;13.45;;
52468;SDS011;38381;53.688;10.776;2023-02-08T00:59:47;22.38;;;17.88;;
52468;SDS011;38381;53.688;10.776;2023-02-08T01:04:48;22.48;;;17.52;;
52468;SDS011;38381;53.688;10.776;2023-02-08T01:09:48;21.48;;;17.23;;
52468;SDS011;38381;53.688;10.776;2023-02-08T01:14:48;22.08;;;17.05;;
52468;SDS011;38381;53.688;10.776;2023-02-08T01:19:49;20.90;;;17.23;;
52468;SDS011;38381;53.688;10.776;2023-02-08T01:24:49;20.65;;;15.40;;
52468;SDS011;38381;53.688;10.776;2023-02-08T01:29:50;20.25;;;16.42;;
52468;SDS011;38381;53.688;10.776;2023-02-08T01:34:50;20.13;;;14.85;;
52468;SDS011;38381;53.688;10.776;2023-02-08T01:39:51;16.23;;;14.23;;
52468;SDS011;38381;53.688;10.776;2023-02-08T01:50:23;16.45;;;13.82;;
52468;SDS011;38381;53.688;10.776;2023-02-08T01:55:31;16.15;;;12.95;;
52468;SDS011;38381;53.688;10.776;2023-02-08T02:00:36;16.80;;;14.98;;
52468;SDS011;38381;53.688;10.776;2023-02-08T02:05:44;15.07;;;13.48;;
52468;SDS011;38381;53.688;10.776;2023-02-08T02:10:47;18.83;;;14.68;;
52468;SDS011;38381;53.688;10.776;2023-02-08T02:15:48;16.17;;;14.53;;
52468;SDS011;38381;53.688;10.776;2023-02-08T02:26:16;19.80;;;15.77;;
52468;SDS011;38381;53.688;10.776;2023-02-08T02:31:52;20.60;;;15.50;;
52468;SDS011;38381;53.688;10.776;2023-02-08T02:37:15;17.73;;;14.43;;
52468;SDS011;38381;53.688;10.776;2023-02-08T02:48:01;17.80;;;15.45;;
52468;SDS011;38381;53.688;10.776;2023-02-08T02:53:05;20.85;;;14.98;;
52468;SDS011;38381;53.688;10.776;2023-02-08T02:58:11;19.33;;;14.48;;
52468;SDS011;38381;53.688;10.776;2023-02-08T03:03:16;19.65;;;15.93;;
52468;SDS011;38381;53.688;10.776;2023-02-08T03:08:40;20.92;;;18.30;;
52468;SDS011;38381;53.688;10.776;2023-02-08T03:19:19;18.55;;;15.68;;
52468;SDS011;38381;53.688;10.776;2023-02-08T03:24:32;18.60;;;15.35;;
52468;SDS011;38381;53.688;10.776;2023-02-08T03:29:43;18.65;;;16.25;;
52468;SDS011;38381;53.688;10.776;2023-02-08T03:40:10;18.27;;;16.17;;
52468;SDS011;38381;53.688;10.776;2023-02-08T03:45:39;19.10;;;15.77;;
52468;SDS011;38381;53.688;10.776;2023-02-08T03:50:40;20.50;;;16.10;;
52468;SDS011;38381;53.688;10.776;2023-02-08T03:55:45;19.60;;;17.30;;
52468;SDS011;38381;53.688;10.776;2023-02-08T04:00:57;22.08;;;15.57;;
52468;SDS011;38381;53.688;10.776;2023-02-08T04:06:03;21.15;;;16.50;;
52468;SDS011;38381;53.688;10.776;2023-02-08T04:11:04;20.02;;;17.52;;
52468;SDS011;38381;53.688;10.776;2023-02-08T04:16:05;16.25;;;13.90;;
52468;SDS011;38381;53.688;10.776;2023-02-08T04:21:05;18.38;;;16.38;;
52468;SDS011;38381;53.688;10.776;2023-02-08T04:26:06;18.77;;;15.00;;
52468;SDS011;38381;53.688;10.776;2023-02-08T04:31:07;25.88;;;19.02;;
52468;SDS011;38381;53.688;10.776;2023-02-08T04:36:08;17.63;;;14.60;;
52468;SDS011;38381;53.688;10.776;2023-02-08T04:41:08;23.52;;;17.83;;
52468;SDS011;38381;53.688;10.776;2023-02-08T04:46:10;19.90;;;16.95;;
52468;SDS011;38381;53.688;10.776;2023-02-08T04:51:10;19.73;;;16.60;;
52468;SDS011;38381;53.688;10.776;2023-02-08T04:56:10;18.17;;;14.93;;
52468;SDS011;38381;53.688;10.776;2023-02-08T05:01:11;24.05;;;18.02;;
52468;SDS011;38381;53.688;10.776;2023-02-08T05:06:11;20.88;;;17.70;;
52468;SDS011;38381;53.688;10.776;2023-02-08T05:11:12;26.30;;;17.50;;
52468;SDS011;38381;53.688;10.776;2023-02-08T05:16:19;23.58;;;17.67;;
52468;SDS011;38381;53.688;10.776;2023-02-08T05:21:19;24.13;;;18.85;;
52468;SDS011;38381;53.688;10.776;2023-02-08T05:26:22;33.20;;;19.65;;
52468;SDS011;38381;53.688;10.776;2023-02-08T05:31:24;28.30;;;20.70;;
52468;SDS011;38381;53.688;10.776;2023-02-08T05:36:24;30.17;;;19.97;;
52468;SDS011;38381;53.688;10.776;2023-02-08T05:41:25;25.90;;;20.52;;
52468;SDS011;38381;53.688;10.776;2023-02-08T05:46:25;30.10;;;22.90;;
52468;SDS011;38381;53.688;10.776;2023-02-08T05:51:26;31.92;;;21.48;;
52468;SDS011;38381;53.688;10.776;2023-02-08T05:56:26;31.27;;;22.00;;
52468;SDS011;38381;53.688;10.776;2023-02-08T06:01:27;31.23;;;22.08;;
52468;SDS011;38381;53.688;10.776;2023-02-08T06:06:28;36.58;;;26.17;;
52468;SDS011;38381;53.688;10.776;2023-02-08T06:11:29;33.17;;;23.08;;
52468;SDS011;38381;53.688;10.776;2023-02-08T06:16:29;33.17;;;24.20;;
52468;SDS011;38381;53.688;10.776;2023-02-08T06:21:30;32.60;;;24.15;;
52468;SDS011;38381;53.688;10.776;2023-02-08T06:26:30;31.65;;;23.38;;
52468;SDS011;38381;53.688;10.776;2023-02-08T06:31:30;33.95;;;23.60;;
52468;SDS011;38381;53.688;10.776;2023-02-08T06:36:31;34.88;;;23.48;;
52468;SDS011;38381;53.688;10.776;2023-02-08T06:41:31;34.05;;;25.00;;
52468;SDS011;38381;53.688;10.776;2023-02-08T06:46:32;30.02;;;26.20;;
52468;SDS011;38381;53.688;10.776;2023-02-08T06:51:32;41.33;;;27.02;;
52468;SDS011;38381;53.688;10.776;2023-02-08T06:56:33;37.22;;;25.40;;
52468;SDS011;38381;53.688;10.776;2023-02-08T07:01:33;33.80;;;24.52;;
52468;SDS011;38381;53.688;10.776;2023-02-08T07:06:33;33.85;;;25.60;;
52468;SDS011;38381;53.688;10.776;2023-02-08T07:11:34;33.85;;;22.58;;
52468;SDS011;38381;53.688;10.776;2023-02-08T07:16:34;38.60;;;24.70;;
52468;SDS011;38381;53.688;10.776;2023-02-08T07:21:35;36.28;;;22.58;;
52468;SDS011;38381;53.688;10.776;2023-02-08T07:26:35;40.25;;;25.27;;
52468;SDS011;38381;53.688;10.776;2023-02-08T07:31:36;32.13;;;24.50;;
52468;SDS011;38381;53.688;10.776;2023-02-08T07:36:36;33.53;;;23.33;;
52468;SDS011;38381;53.688;10.776;2023-02-08T07:41:36;36.85;;;24.95;;
52468;SDS011;38381;53.688;10.776;2023-02-08T07:46:37;33.50;;;24.20;;
52468;SDS011;38381;53.688;10.776;2023-02-08T07:51:38;34.80;;;25.67;;
52468;SDS011;38381;53.688;10.776;2023-02-08T07:56:39;35.60;;;23.67;;
52468;SDS011;38381;53.688;10.776;2023-02-08T08:01:39;34.55;;;22.15;;
52468;SDS011;38381;53.688;10.776;2023-02-08T08:06:39;35.15;;;23.88;;
52468;SDS011;38381;53.688;10.776;2023-02-08T08:11:40;38.95;;;24.40;;
52468;SDS011;38381;53.688;10.776;2023-02-08T08:16:40;29.85;;;23.05;;
52468;SDS011;38381;53.688;10.776;2023-02-08T08:21:42;33.53;;;22.80;;
52468;SDS011;38381;53.688;10.776;2023-02-08T08:26:42;33.92;;;24.27;;
52468;SDS011;38381;53.688;10.776;2023-02-08T08:31:43;29.15;;;20.75;;
52468;SDS011;38381;53.688;10.776;2023-02-08T08:36:43;32.22;;;21.25;;
52468;SDS011;38381;53.688;10.776;2023-02-08T08:41:44;27.95;;;20.60;;
52468;SDS011;38381;53.688;10.776;2023-02-08T08:46:44;26.55;;;19.30;;
52468;SDS011;38381;53.688;10.776;2023-02-08T08:51:45;28.85;;;20.92;;
52468;SDS011;38381;53.688;10.776;2023-02-08T08:56:45;25.60;;;18.80;;
52468;SDS011;38381;53.688;10.776;2023-02-08T09:01:46;27.80;;;19.70;;
52468;SDS011;38381;53.688;10.776;2023-02-08T09:06:46;26.63;;;17.65;;
52468;SDS011;38381;53.688;10.776;2023-02-08T09:11:47;23.70;;;17.92;;
52468;SDS011;38381;53.688;10.776;2023-02-08T09:16:48;22.47;;;17.63;;
52468;SDS011;38381;53.688;10.776;2023-02-08T09:21:49;25.48;;;19.50;;
52468;SDS011;38381;53.688;10.776;2023-02-08T09:26:49;22.77;;;17.08;;
52468;SDS011;38381;53.688;10.776;2023-02-08T09:31:50;25.83;;;17.42;;
52468;SDS011;38381;53.688;10.776;2023-02-08T09:36:50;23.15;;;18.15;;
52468;SDS011;38381;53.688;10.776;2023-02-08T09:47:07;20.08;;;16.27;;
52468;SDS011;38381;53.688;10.776;2023-02-08T09:52:18;19.55;;;15.88;;
52468;SDS011;38381;53.688;10.776;2023-02-08T09:57:23;18.20;;;14.18;;
52468;SDS011;38381;53.688;10.776;2023-02-08T10:02:29;21.95;;;13.95;;
52468;SDS011;38381;53.688;10.776;2023-02-08T10:07:31;20.20;;;13.88;;
52468;SDS011;38381;53.688;10.776;2023-02-08T10:12:40;20.45;;;14.40;;
52468;SDS011;38381;53.688;10.776;2023-02-08T10:18:28;19.83;;;14.15;;
52468;SDS011;38381;53.688;10.776;2023-02-08T10:39:44;16.98;;;12.25;;
52468;SDS011;38381;53.688;10.776;2023-02-08T10:44:56;18.27;;;15.40;;
52468;SDS011;38381;53.688;10.776;2023-02-08T10:50:34;18.15;;;13.52;;
52468;SDS011;38381;53.688;10.776;2023-02-08T10:55:43;20.35;;;14.43;;
52468;SDS011;38381;53.688;10.776;2023-02-08T11:05:46;18.13;;;14.30;;
52468;SDS011;38381;53.688;10.776;2023-02-08T11:10:57;21.38;;;15.00;;
52468;SDS011;38381;53.688;10.776;2023-02-08T11:16:03;18.35;;;13.43;;
52468;SDS011;38381;53.688;10.776;2023-02-08T11:21:19;20.33;;;14.73;;
52468;SDS011;38381;53.688;10.776;2023-02-08T11:26:23;16.63;;;13.55;;
52468;SDS011;38381;53.688;10.776;2023-02-08T11:31:30;19.00;;;13.82;;
52468;SDS011;38381;53.688;10.776;2023-02-08T11:36:32;20.75;;;15.52;;
52468;SDS011;38381;53.688;10.776;2023-02-08T11:41:34;21.65;;;15.02;;
52468;SDS011;38381;53.688;10.776;2023-02-08T11:46:35;20.33;;;14.20;;
52468;SDS011;38381;53.688;10.776;2023-02-08T11:51:36;22.88;;;14.60;;
52468;SDS011;38381;53.688;10.776;2023-02-08T11:56:38;20.92;;;14.85;;
52468;SDS011;38381;53.688;10.776;2023-02-08T12:01:39;16.35;;;13.50;;
52468;SDS011;38381;53.688;10.776;2023-02-08T12:06:46;19.08;;;14.93;;
52468;SDS011;38381;53.688;10.776;2023-02-08T12:11:59;18.30;;;15.98;;
52468;SDS011;38381;53.688;10.776;2023-02-08T12:22:25;19.58;;;14.60;;
52468;SDS011;38381;53.688;10.776;2023-02-08T12:27:43;16.52;;;13.48;;
52468;SDS011;38381;53.688;10.776;2023-02-08T12:32:56;19.92;;;15.48;;
52468;SDS011;38381;53.688;10.776;2023-02-08T12:49:07;20.25;;;13.40;;
52468;SDS011;38381;53.688;10.776;2023-02-08T12:54:35;17.83;;;14.38;;
52468;SDS011;38381;53.688;10.776;2023-02-08T12:59:38;21.60;;;14.25;;
52468;SDS011;38381;53.688;10.776;2023-02-08T13:04:48;22.35;;;15.75;;
52468;SDS011;38381;53.688;10.776;2023-02-08T13:09:55;26.38;;;18.35;;
52468;SDS011;38381;53.688;10.776;2023-02-08T13:15:03;20.65;;;15.70;;
52468;SDS011;38381;53.688;10.776;2023-02-08T13:20:19;22.33;;;16.88;;
52468;SDS011;38381;53.688;10.776;2023-02-08T13:25:29;18.08;;;15.00;;
52468;SDS011;38381;53.688;10.776;2023-02-08T13:30:34;18.95;;;13.52;;
52468;SDS011;38381;53.688;10.776;2023-02-08T13:35:37;21.25;;;15.40;;
52468;SDS011;38381;53.688;10.776;2023-02-08T13:40:38;19.55;;;15.35;;
52468;SDS011;38381;53.688;10.776;2023-02-08T13:45:41;23.00;;;14.85;;
52468;SDS011;38381;53.688;10.776;2023-02-08T13:50:47;20.63;;;15.70;;
52468;SDS011;38381;53.688;10.776;2023-02-08T13:55:56;18.85;;;14.35;;
52468;SDS011;38381;53.688;10.776;2023-02-08T14:01:00;20.67;;;15.20;;
52468;SDS011;38381;53.688;10.776;2023-02-08T14:16:21;17.48;;;12.27;;
52468;SDS011;38381;53.688;10.776;2023-02-08T14:21:35;19.05;;;12.70;;
52468;SDS011;38381;53.688;10.776;2023-02-08T14:26:38;19.13;;;14.07;;
52468;SDS011;38381;53.688;10.776;2023-02-08T14:31:42;24.73;;;12.95;;
52468;SDS011;38381;53.688;10.776;2023-02-08T14:36:44;19.75;;;14.57;;
52468;SDS011;38381;53.688;10.776;2023-02-08T14:46:53;24.63;;;14.13;;
52468;SDS011;38381;53.688;10.776;2023-02-08T14:51:55;16.75;;;13.07;;
52468;SDS011;38381;53.688;10.776;2023-02-08T14:57:47;22.50;;;15.68;;
52468;SDS011;38381;53.688;10.776;2023-02-08T15:02:28;20.50;;;13.63;;
52468;SDS011;38381;53.688;10.776;2023-02-08T15:07:41;22.27;;;14.05;;
52468;SDS011;38381;53.688;10.776;2023-02-08T15:12:52;15.73;;;14.00;;
52468;SDS011;38381;53.688;10.776;2023-02-08T15:17:55;19.73;;;13.10;;
52468;SDS011;38381;53.688;10.776;2023-02-08T15:28:21;18.23;;;13.88;;
52468;SDS011;38381;53.688;10.776;2023-02-08T15:33:23;16.83;;;13.15;;
52468;SDS011;38381;53.688;10.776;2023-02-08T15:38:23;18.50;;;14.02;;
52468;SDS011;38381;53.688;10.776;2023-02-08T15:43:24;18.50;;;13.55;;
52468;SDS011;38381;53.688;10.776;2023-02-08T15:48:25;21.02;;;15.57;;
52468;SDS011;38381;53.688;10.776;2023-02-08T15:53:27;30.60;;;21.17;;
52468;SDS011;38381;53.688;10.776;2023-02-08T15:58:29;20.27;;;15.82;;
52468;SDS011;38381;53.688;10.776;2023-02-08T16:03:34;21.70;;;15.07;;
52468;SDS011;38381;53.688;10.776;2023-02-08T16:08:37;23.60;;;17.30;;
52468;SDS011;38381;53.688;10.776;2023-02-08T16:13:44;16.83;;;14.30;;
52468;SDS011;38381;53.688;10.776;2023-02-08T16:18:55;22.42;;;16.83;;
52468;SDS011;38381;53.688;10.776;2023-02-08T16:24:04;25.75;;;20.10;;
52468;SDS011;38381;53.688;10.776;2023-02-08T16:29:25;26.52;;;20.40;;
52468;SDS011;38381;53.688;10.776;2023-02-08T16:34:28;23.42;;;17.50;;
52468;SDS011;38381;53.688;10.776;2023-02-08T16:39:38;23.70;;;17.77;;
52468;SDS011;38381;53.688;10.776;2023-02-08T16:50:16;22.10;;;15.48;;
52468;SDS011;38381;53.688;10.776;2023-02-08T16:55:24;20.85;;;15.23;;
52468;SDS011;38381;53.688;10.776;2023-02-08T17:00:28;22.25;;;17.25;;
52468;SDS011;38381;53.688;10.776;2023-02-08T17:05:30;21.38;;;16.55;;
52468;SDS011;38381;53.688;10.776;2023-02-08T17:10:36;26.77;;;19.38;;
52468;SDS011;38381;53.688;10.776;2023-02-08T17:15:37;28.80;;;20.95;;
52468;SDS011;38381;53.688;10.776;2023-02-08T17:20:38;31.90;;;18.52;;
52468;SDS011;38381;53.688;10.776;2023-02-08T17:25:38;26.05;;;21.55;;
52468;SDS011;38381;53.688;10.776;2023-02-08T17:30:40;24.48;;;20.02;;
52468;SDS011;38381;53.688;10.776;2023-02-08T17:35:41;34.75;;;21.85;;
52468;SDS011;38381;53.688;10.776;2023-02-08T17:40:43;30.85;;;23.10;;
52468;SDS011;38381;53.688;10.776;2023-02-08T17:45:44;33.90;;;26.13;;
52468;SDS011;38381;53.688;10.776;2023-02-08T17:50:45;27.08;;;19.92;;
52468;SDS011;38381;53.688;10.776;2023-02-08T17:55:49;31.98;;;21.77;;
52468;SDS011;38381;53.688;10.776;2023-02-08T18:00:50;27.17;;;20.25;;
52468;SDS011;38381;53.688;10.776;2023-02-08T18:05:55;27.48;;;22.10;;
52468;SDS011;38381;53.688;10.776;2023-02-08T18:11:01;31.23;;;21.00;;
52468;SDS011;38381;53.688;10.776;2023-02-08T18:16:09;23.55;;;20.35;;
52468;SDS011;38381;53.688;10.776;2023-02-08T18:21:15;28.80;;;20.70;;
52468;SDS011;38381;53.688;10.776;2023-02-08T18:26:19;27.20;;;21.98;;
52468;SDS011;38381;53.688;10.776;2023-02-08T18:31:21;26.60;;;20.90;;
52468;SDS011;38381;53.688;10.776;2023-02-08T18:36:22;29.88;;;21.65;;
52468;SDS011;38381;53.688;10.776;2023-02-08T18:41:26;28.48;;;21.75;;
52468;SDS011;38381;53.688;10.776;2023-02-08T18:46:27;32.92;;;23.05;;
52468;SDS011;38381;53.688;10.776;2023-02-08T18:51:28;27.83;;;22.50;;
52468;SDS011;38381;53.688;10.776;2023-02-08T18:56:28;28.20;;;20.77;;
52468;SDS011;38381;53.688;10.776;2023-02-08T19:06:34;27.30;;;19.70;;
52468;SDS011;38381;53.688;10.776;2023-02-08T19:11:36;26.55;;;22.23;;
52468;SDS011;38381;53.688;10.776;2023-02-08T19:16:39;27.27;;;20.70;;
52468;SDS011;38381;53.688;10.776;2023-02-08T19:21:39;25.75;;;19.15;;
52468;SDS011;38381;53.688;10.776;2023-02-08T19:26:40;32.28;;;23.98;;
52468;SDS011;38381;53.688;10.776;2023-02-08T19:31:41;28.55;;;21.15;;
52468;SDS011;38381;53.688;10.776;2023-02-08T19:36:44;30.33;;;22.92;;
52468;SDS011;38381;53.688;10.776;2023-02-08T19:41:48;32.92;;;23.63;;
52468;SDS011;38381;53.688;10.776;2023-02-08T19:46:50;28.70;;;21.25;;
52468;SDS011;38381;53.688;10.776;2023-02-08T19:51:51;29.75;;;22.70;;
52468;SDS011;38381;53.688;10.776;2023-02-08T19:56:52;30.20;;;23.40;;
52468;SDS011;38381;53.688;10.776;2023-02-08T20:01:53;31.25;;;23.77;;
52468;SDS011;38381;53.688;10.776;2023-02-08T20:06:54;31.63;;;25.00;;
52468;SDS011;38381;53.688;10.776;2023-02-08T20:11:55;29.08;;;22.80;;
52468;SDS011;38381;53.688;10.776;2023-02-08T20:16:56;30.05;;;24.40;;
52468;SDS011;38381;53.688;10.776;2023-02-08T20:21:56;30.17;;;24.55;;
52468;SDS011;38381;53.688;10.776;2023-02-08T20:26:57;32.63;;;22.90;;
52468;SDS011;38381;53.688;10.776;2023-02-08T20:31:57;33.88;;;22.85;;
52468;SDS011;38381;53.688;10.776;2023-02-08T20:36:58;32.53;;;24.25;;
52468;SDS011;38381;53.688;10.776;2023-02-08T20:41:59;33.58;;;23.48;;
52468;SDS011;38381;53.688;10.776;2023-02-08T20:46:59;30.10;;;24.45;;
52468;SDS011;38381;53.688;10.776;2023-02-08T20:52:00;27.92;;;22.90;;
52468;SDS011;38381;53.688;10.776;2023-02-08T20:57:00;32.67;;;25.83;;
52468;SDS011;38381;53.688;10.776;2023-02-08T21:02:01;32.10;;;23.75;;
52468;SDS011;38381;53.688;10.776;2023-02-08T21:07:04;31.10;;;26.42;;
52468;SDS011;38381;53.688;10.776;2023-02-08T21:12:04;34.35;;;23.33;;
52468;SDS011;38381;53.688;10.776;2023-02-08T21:17:05;33.20;;;24.58;;
52468;SDS011;38381;53.688;10.776;2023-02-08T21:22:05;31.10;;;26.25;;
52468;SDS011;38381;53.688;10.776;2023-02-08T21:27:06;32.63;;;25.25;;
52468;SDS011;38381;53.688;10.776;2023-02-08T21:32:06;33.35;;;24.63;;
52468;SDS011;38381;53.688;10.776;2023-02-08T21:37:07;37.28;;;26.15;;
52468;SDS011;38381;53.688;10.776;2023-02-08T21:42:07;32.72;;;25.42;;
52468;SDS011;38381;53.688;10.776;2023-02-08T21:47:07;33.97;;;26.73;;
52468;SDS011;38381;53.688;10.776;2023-02-08T21:52:08;33.30;;;27.08;;
52468;SDS011;38381;53.688;10.776;2023-02-08T21:57:29;35.58;;;25.40;;
52468;SDS011;38381;53.688;10.776;2023-02-08T22:02:36;35.75;;;27.35;;
52468;SDS011;38381;53.688;10.776;2023-02-08T22:07:47;32.97;;;26.88;;
52468;SDS011;38381;53.688;10.776;2023-02-08T22:12:53;32.63;;;25.23;;
52468;SDS011;38381;53.688;10.776;2023-02-08T22:17:55;37.25;;;27.77;;
52468;SDS011;38381;53.688;10.776;2023-02-08T22:22:58;36.58;;;27.58;;
52468;SDS011;38381;53.688;10.776;2023-02-08T22:27:58;37.13;;;26.55;;
52468;SDS011;38381;53.688;10.776;2023-02-08T22:32:59;38.08;;;27.63;;
52468;SDS011;38381;53.688;10.776;2023-02-08T22:37:59;43.15;;;29.88;;
52468;SDS011;38381;53.688;10.776;2023-02-08T22:42:59;41.25;;;30.77;;
52468;SDS011;38381;53.688;10.776;2023-02-08T22:48:00;38.97;;;30.48;;
52468;SDS011;38381;53.688;10.776;2023-02-08T22:53:00;37.83;;;27.98;;
52468;SDS011;38381;53.688;10.776;2023-02-08T22:58:01;40.20;;;30.80;;
52468;SDS011;38381;53.688;10.776;2023-02-08T23:03:01;39.58;;;29.92;;
52468;SDS011;38381;53.688;10.776;2023-02-08T23:08:01;42.85;;;30.80;;
52468;SDS011;38381;53.688;10.776;2023-02-08T23:13:02;38.05;;;28.48;;
52468;SDS011;38381;53.688;10.776;2023-02-08T23:18:04;44.30;;;31.23;;
52468;SDS011;38381;53.688;10.776;2023-02-08T23:23:05;46.00;;;33.65;;
52468;SDS011;38381;53.688;10.776;2023-02-08T23:28:07;41.17;;;30.60;;
52468;SDS011;38381;53.688;10.776;2023-02-08T23:33:08;42.95;;;32.08;;
52468;SDS011;38381;53.688;10.776;2023-02-08T23:38:09;40.55;;;33.85;;
52468;SDS011;38381;53.688;10.776;2023-02-08T23:43:09;41.47;;;34.03;;
52468;SDS011;38381;53.688;10.776;2023-02-08T23:48:10;41.17;;;31.90;;
52468;SDS011;38381;53.688;10.776;2023-02-08T23:53:10;42.50;;;31.10;;
52468;SDS011;38381;53.688;10.776;2023-02-08T23:58:10;48.20;;;34.85;;
